Time;durP1;ratioP1;P1;durP2;ratioP2;P2;SDS_P1;SDS_P2;PMS_P1;PMS_P2;Temp;Humidity;BMP_temperature;BMP_pressure;BME280_temperature;BME280_humidity;BME280_pressure;Samples;Min_cycle;Max_cycle;Signal;HPM_P1;HPM_P2
2022/03/26 00:00:53;;;;;;;17.92;14.30;;;;;;;8.55;37.23;95728.22;5155894;27;20193;-67
2022/03/26 00:03:20;;;;;;;15.65;14.05;;;;;;;8.49;38.55;95733.06;5155988;27;20520;-67
2022/03/26 00:05:47;;;;;;;18.83;14.10;;;;;;;8.32;37.87;95733.03;5158502;27;20198;-67
2022/03/26 00:08:14;;;;;;;18.25;13.63;;;;;;;8.18;38.02;95742.22;5137850;27;20231;-67
2022/03/26 00:10:41;;;;;;;20.60;13.63;;;;;;;8.11;38.86;95738.34;5139001;27;20203;-67
2022/03/26 00:13:08;;;;;;;17.45;14.52;;;;;;;8.01;39.40;95735.88;5138743;27;20209;-67
2022/03/26 00:15:35;;;;;;;18.70;14.88;;;;;;;7.90;39.08;95732.63;5138964;27;20213;-67
2022/03/26 00:18:03;;;;;;;18.30;16.30;;;;;;;7.80;39.28;95738.41;5138242;27;20203;-67
2022/03/26 00:20:30;;;;;;;20.67;16.30;;;;;;;7.78;39.23;95736.00;5137709;27;20194;-67
2022/03/26 00:22:57;;;;;;;20.58;15.82;;;;;;;7.75;39.54;95741.31;5137935;27;20199;-67
2022/03/26 00:25:24;;;;;;;18.45;15.80;;;;;;;7.67;38.81;95742.91;5121494;27;20591;-67
2022/03/26 00:27:51;;;;;;;16.90;15.10;;;;;;;7.60;39.62;95732.38;5137922;27;20199;-66
2022/03/26 00:30:18;;;;;;;18.45;15.20;;;;;;;7.65;39.87;95732.22;5138640;27;20203;-66
2022/03/26 00:32:45;;;;;;;21.00;15.05;;;;;;;7.61;39.58;95734.00;5138369;27;20179;-66
2022/03/26 00:35:13;;;;;;;19.00;14.23;;;;;;;7.54;39.44;95736.41;5120844;27;20195;-66
2022/03/26 00:37:41;;;;;;;15.95;14.25;;;;;;;7.51;39.42;95734.28;5138881;27;20202;-66
2022/03/26 00:40:09;;;;;;;16.10;13.80;;;;;;;7.58;39.41;95737.38;5138235;27;20603;-66
2022/03/26 00:42:36;;;;;;;19.27;14.30;;;;;;;7.65;39.35;95737.72;5137405;27;20210;-66
2022/03/26 00:45:03;;;;;;;17.10;14.55;;;;;;;7.62;40.52;95737.56;5138220;27;20195;-66
2022/03/26 00:47:30;;;;;;;17.70;14.63;;;;;;;7.48;40.93;95740.44;5137528;27;20209;-66
2022/03/26 00:49:57;;;;;;;19.67;16.17;;;;;;;7.34;41.20;95753.44;5138279;27;20210;-66
2022/03/26 00:52:25;;;;;;;17.05;15.02;;;;;;;7.14;40.82;95746.53;5137472;27;20195;-66
2022/03/26 00:54:52;;;;;;;16.83;14.95;;;;;;;7.00;40.88;95752.09;5137836;27;20633;-66
2022/03/26 00:57:19;;;;;;;17.75;14.63;;;;;;;7.02;41.40;95757.28;5137834;27;20205;-66
2022/03/26 00:59:46;;;;;;;16.85;13.95;;;;;;;7.06;41.11;95756.34;5137678;27;20203;-66
2022/03/26 01:02:13;;;;;;;16.05;14.20;;;;;;;7.05;41.05;95748.44;5138090;27;20199;-66
2022/03/26 01:04:40;;;;;;;15.77;13.98;;;;;;;7.10;40.94;95756.53;5137048;27;20558;-66
2022/03/26 01:07:07;;;;;;;15.45;13.85;;;;;;;7.14;40.77;95757.50;5136941;27;20231;-66
2022/03/26 01:09:35;;;;;;;15.60;13.48;;;;;;;7.05;42.10;95768.44;5137910;27;20199;-66
2022/03/26 01:12:03;;;;;;;15.95;14.35;;;;;;;6.85;42.10;95763.47;5138009;27;20199;-67
2022/03/26 01:14:30;;;;;;;16.65;13.20;;;;;;;6.71;42.07;95763.53;5137791;27;20190;-67
2022/03/26 01:16:57;;;;;;;16.10;14.07;;;;;;;6.61;42.18;95778.31;5119634;27;20251;-67
2022/03/26 01:19:23;;;;;;;15.45;13.25;;;;;;;6.61;41.86;95778.31;5137766;27;20199;-67
2022/03/26 01:21:50;;;;;;;14.88;13.40;;;;;;;6.70;41.70;95779.16;5137462;27;20179;-67
2022/03/26 01:24:17;;;;;;;17.23;14.15;;;;;;;6.81;42.10;95776.19;5119692;27;20201;-67
2022/03/26 01:26:46;;;;;;;17.02;13.25;;;;;;;6.88;41.48;95780.09;5119306;27;20293;-67
2022/03/26 01:29:13;;;;;;;15.52;12.98;;;;;;;6.87;40.81;95783.16;5119543;27;20201;-67
2022/03/26 01:31:40;;;;;;;17.40;13.75;;;;;;;6.85;42.67;95785.41;5137286;27;20183;-67
2022/03/26 01:34:07;;;;;;;17.10;14.35;;;;;;;6.67;42.26;95782.53;5119664;27;20187;-67
2022/03/26 01:36:34;;;;;;;17.35;14.65;;;;;;;6.49;42.67;95788.97;5137523;27;20194;-67
2022/03/26 01:39:00;;;;;;;16.77;14.98;;;;;;;6.35;43.13;95793.69;5137177;27;20183;-67
2022/03/26 01:41:27;;;;;;;15.68;14.02;;;;;;;6.22;43.10;95789.88;5119330;27;20298;-67
2022/03/26 01:43:56;;;;;;;20.60;14.52;;;;;;;6.17;43.21;95790.81;5137278;27;20183;-67
2022/03/26 01:46:23;;;;;;;17.60;14.38;;;;;;;6.24;43.04;95791.16;5119194;27;20199;-67
2022/03/26 01:48:50;;;;;;;17.88;13.98;;;;;;;6.27;42.94;95787.81;5136292;27;20202;-67
2022/03/26 01:51:17;;;;;;;18.65;13.75;;;;;;;6.29;43.04;95793.00;5135886;27;20211;-67
2022/03/26 01:53:46;;;;;;;13.77;12.27;;;;;;;6.35;42.44;95793.69;5136458;27;20191;-67
2022/03/26 01:56:14;;;;;;;13.35;12.02;;;;;;;6.36;42.13;95792.59;5136384;27;20198;-67
2022/03/26 01:58:41;;;;;;;14.95;12.35;;;;;;;6.39;43.07;95787.31;5136873;27;20187;-67
2022/03/26 02:01:09;;;;;;;15.82;14.05;;;;;;;6.37;43.10;95784.06;5136028;27;20209;-67
2022/03/26 02:03:36;;;;;;;15.38;13.77;;;;;;;6.26;43.87;95786.22;5137192;27;20183;-67
2022/03/26 02:06:03;;;;;;;16.20;13.25;;;;;;;6.22;42.95;95787.94;5136018;27;20198;-67
2022/03/26 02:08:31;;;;;;;18.10;13.65;;;;;;;6.20;43.57;95794.84;5153651;27;20236;-67
2022/03/26 02:10:58;;;;;;;16.10;13.82;;;;;;;6.11;43.63;95797.50;5157515;27;20202;-67
2022/03/26 02:13:25;;;;;;;16.63;14.10;;;;;;;6.01;44.20;95798.53;5157441;27;20190;-67
2022/03/26 02:15:51;;;;;;;17.02;15.23;;;;;;;5.85;45.22;95799.94;5139356;27;20198;-67
2022/03/26 02:18:20;;;;;;;15.93;13.93;;;;;;;5.71;45.18;95794.47;5157524;27;20200;-67
2022/03/26 02:20:48;;;;;;;15.85;14.15;;;;;;;5.67;44.54;95803.59;5157214;27;20194;-67
2022/03/26 02:23:15;;;;;;;16.20;14.50;;;;;;;5.62;45.14;95800.94;5157495;27;20191;-67
2022/03/26 02:25:42;;;;;;;17.60;15.80;;;;;;;5.58;45.69;95799.91;5139448;27;20633;-67
2022/03/26 02:28:09;;;;;;;21.83;17.08;;;;;;;5.51;45.31;95795.66;5138492;27;20194;-67
2022/03/26 02:30:36;;;;;;;18.52;16.73;;;;;;;5.48;45.51;95804.50;5138908;27;20665;-67
2022/03/26 02:33:03;;;;;;;20.65;16.27;;;;;;;5.47;45.12;95805.59;5139187;27;20225;-67
2022/03/26 02:35:30;;;;;;;17.58;15.88;;;;;;;5.49;45.07;95803.38;5139104;27;20556;-67
2022/03/26 02:37:58;;;;;;;17.27;14.95;;;;;;;5.55;44.98;95807.63;5157206;27;20182;-67
2022/03/26 02:40:25;;;;;;;17.23;14.70;;;;;;;5.60;44.93;95805.91;5157069;27;20208;-67
2022/03/26 02:42:51;;;;;;;16.83;14.88;;;;;;;5.64;45.10;95810.47;5156983;27;20182;-67
2022/03/26 02:45:18;;;;;;;18.80;15.13;;;;;;;5.60;46.03;95811.38;5156639;27;20610;-67
2022/03/26 02:47:48;;;;;;;15.63;14.13;;;;;;;5.46;45.57;95808.63;5139375;27;20200;-67
2022/03/26 02:50:15;;;;;;;18.33;14.20;;;;;;;5.34;45.82;95811.03;5138976;27;20233;-67
2022/03/26 02:52:41;;;;;;;16.73;14.93;;;;;;;5.23;45.83;95811.22;5138770;27;20202;-67
2022/03/26 02:55:10;;;;;;;20.70;15.02;;;;;;;5.20;45.66;95813.75;5139330;27;20209;-67
2022/03/26 02:57:37;;;;;;;17.40;15.60;;;;;;;5.13;46.15;95811.41;5157045;27;20187;-67
2022/03/26 03:00:07;;;;;;;17.15;15.35;;;;;;;5.07;45.87;95815.34;5138963;27;20263;-66
2022/03/26 03:02:34;;;;;;;18.83;15.38;;;;;;;5.05;46.06;95817.56;5156872;27;20179;-66
2022/03/26 03:05:01;;;;;;;20.73;15.70;;;;;;;5.04;46.21;95815.94;5156459;27;20224;-66
2022/03/26 03:07:28;;;;;;;19.65;15.65;;;;;;;5.06;46.15;95820.00;5156362;27;20230;-66
2022/03/26 03:09:55;;;;;;;17.63;15.75;;;;;;;5.11;46.07;95824.56;5138931;27;20198;-66
2022/03/26 03:12:23;;;;;;;18.70;15.15;;;;;;;5.14;46.68;95823.97;5156847;27;20187;-66
2022/03/26 03:14:50;;;;;;;18.02;14.85;;;;;;;5.02;46.43;95820.91;5138179;27;20194;-67
2022/03/26 03:17:17;;;;;;;18.42;15.25;;;;;;;4.92;47.26;95821.06;5139153;27;20209;-67
2022/03/26 03:19:44;;;;;;;20.38;16.42;;;;;;;4.83;47.15;95816.28;5156467;27;20302;-67
2022/03/26 03:22:11;;;;;;;18.00;14.93;;;;;;;4.80;46.88;95816.88;5156376;27;20199;-67
2022/03/26 03:24:38;;;;;;;17.33;15.00;;;;;;;4.90;47.17;95829.56;5138549;27;20339;-67
2022/03/26 03:27:05;;;;;;;20.10;15.40;;;;;;;5.00;46.80;95821.19;5138449;27;20202;-67
2022/03/26 03:29:34;;;;;;;17.75;14.52;;;;;;;5.07;46.39;95815.34;5138455;27;20200;-67
2022/03/26 03:32:01;;;;;;;17.60;15.65;;;;;;;5.09;46.60;95826.78;5138562;27;20206;-66
2022/03/26 03:34:28;;;;;;;20.35;14.73;;;;;;;5.02;46.73;95821.72;5156580;27;20205;-66
2022/03/26 03:36:55;;;;;;;18.33;15.38;;;;;;;4.98;46.59;95825.34;5138275;27;20214;-66
2022/03/26 03:39:23;;;;;;;18.45;14.75;;;;;;;4.87;46.73;95823.88;5139224;27;20191;-66
2022/03/26 03:41:50;;;;;;;17.48;14.85;;;;;;;4.78;46.96;95829.19;5160141;27;20182;-66
2022/03/26 03:44:17;;;;;;;18.45;15.27;;;;;;;4.67;47.60;95834.00;5142240;27;20191;-66
2022/03/26 03:46:45;;;;;;;20.38;15.27;;;;;;;4.61;47.36;95835.19;5142300;27;20206;-67
2022/03/26 03:49:12;;;;;;;18.15;15.02;;;;;;;4.69;47.49;95831.81;5142188;27;20194;-67
2022/03/26 03:51:38;;;;;;;15.88;14.20;;;;;;;4.79;46.98;95826.19;5142312;27;20222;-67
2022/03/26 03:54:05;;;;;;;22.00;16.40;;;;;;;4.80;47.43;95835.19;5141832;27;20187;-67
2022/03/26 03:56:32;;;;;;;25.05;20.77;;;;;;;4.68;47.82;95830.16;5141649;27;20214;-67
2022/03/26 03:58:59;;;;;;;23.85;19.42;;;;;;;4.56;47.37;95833.34;5141997;27;20191;-67
2022/03/26 04:01:26;;;;;;;20.55;18.27;;;;;;;4.58;47.45;95833.88;5159782;27;20180;-67
2022/03/26 04:03:54;;;;;;;26.00;21.80;;;;;;;4.50;47.83;95840.03;5160046;27;20193;-67
2022/03/26 04:06:21;;;;;;;29.90;24.80;;;;;;;4.38;48.01;95847.81;5142100;27;20281;-67
2022/03/26 04:08:49;;;;;;;27.58;22.92;;;;;;;4.43;47.82;95852.41;5141607;27;20229;-67
2022/03/26 04:11:16;;;;;;;21.83;17.80;;;;;;;4.52;47.75;95843.25;5142064;27;20229;-67
2022/03/26 04:13:42;;;;;;;17.85;15.95;;;;;;;4.64;47.18;95852.91;5159592;27;20183;-67
2022/03/26 04:16:09;;;;;;;20.85;16.10;;;;;;;4.70;46.06;95849.00;5141695;27;20202;-67
2022/03/26 04:18:36;;;;;;;18.15;16.25;;;;;;;4.73;46.09;95848.44;5159736;27;20194;-67
2022/03/26 04:21:04;;;;;;;25.48;19.77;;;;;;;4.72;46.96;95852.25;5141508;27;20198;-67
2022/03/26 04:23:31;;;;;;;23.02;17.73;;;;;;;4.66;46.97;95851.53;5159706;27;20183;-67
2022/03/26 04:25:58;;;;;;;24.77;19.10;;;;;;;4.59;48.08;95859.28;5159315;27;20197;-67
2022/03/26 04:28:26;;;;;;;25.80;21.65;;;;;;;4.46;47.75;95860.81;5159594;27;20187;-67
2022/03/26 04:30:53;;;;;;;27.25;21.95;;;;;;;4.32;47.61;95868.94;5140835;27;20214;-67
2022/03/26 04:33:20;;;;;;;28.58;23.50;;;;;;;4.25;47.56;95868.50;5159469;27;20259;-67
2022/03/26 04:35:47;;;;;;;28.83;23.40;;;;;;;4.17;47.82;95866.41;5159475;27;20193;-67
2022/03/26 04:38:15;;;;;;;28.33;23.30;;;;;;;4.20;47.98;95876.72;5159421;27;20182;-67
2022/03/26 04:40:42;;;;;;;28.30;22.27;;;;;;;4.30;48.17;95882.06;5140745;27;20194;-67
2022/03/26 04:43:09;;;;;;;26.25;21.65;;;;;;;4.31;47.68;95883.69;5141393;27;20205;-67
2022/03/26 04:45:36;;;;;;;26.15;21.55;;;;;;;4.34;47.84;95883.09;5141099;27;20202;-67
2022/03/26 04:48:02;;;;;;;24.50;21.50;;;;;;;4.32;47.81;95887.22;5159163;27;20198;-67
2022/03/26 04:50:29;;;;;;;25.60;21.98;;;;;;;4.26;48.64;95883.75;5140640;27;20198;-67
2022/03/26 04:52:56;;;;;;;26.48;22.02;;;;;;;4.22;48.91;95879.19;5140977;27;20202;-67
2022/03/26 04:55:24;;;;;;;27.77;23.60;;;;;;;4.16;48.56;95888.53;5141217;27;20202;-67
2022/03/26 04:57:52;;;;;;;34.13;24.95;;;;;;;4.12;48.99;95892.97;5140791;27;20203;-66
2022/03/26 05:00:20;;;;;;;26.67;22.40;;;;;;;4.09;48.77;95892.44;5140836;27;20198;-66
2022/03/26 05:02:47;;;;;;;31.15;24.17;;;;;;;4.10;49.12;95887.78;5158832;27;20190;-66
2022/03/26 05:05:14;;;;;;;30.70;24.98;;;;;;;4.17;48.57;95899.16;5158939;27;20187;-66
2022/03/26 05:07:47;;;;;;;26.02;22.95;;;;;;;4.26;48.49;95891.16;5158548;27;20237;-66
2022/03/26 05:10:15;;;;;;;26.25;20.67;;;;;;;4.35;48.11;95894.84;5158844;27;20255;-67
2022/03/26 05:12:43;;;;;;;22.25;19.65;;;;;;;4.44;48.21;95895.00;5140412;27;20220;-69
2022/03/26 05:15:11;;;;;;;25.13;22.42;;;;;;;4.53;48.36;95895.97;5158621;27;20555;-68
2022/03/26 05:17:38;;;;;;;29.75;23.67;;;;;;;4.53;48.45;95901.44;5140575;27;20209;-68
2022/03/26 05:20:06;;;;;;;27.17;22.70;;;;;;;4.60;47.95;95899.16;5140432;27;20194;-68
2022/03/26 05:22:33;;;;;;;22.23;18.85;;;;;;;4.70;47.73;95900.94;5140298;27;20182;-68
2022/03/26 05:24:59;;;;;;;18.27;16.15;;;;;;;4.80;46.67;95906.25;5140314;27;20552;-70
2022/03/26 05:27:26;;;;;;;17.55;14.38;;;;;;;4.87;45.88;95903.97;5140470;27;20198;-66
2022/03/26 05:29:55;;;;;;;14.18;12.68;;;;;;;4.93;45.00;95896.50;5140253;27;20285;-67
2022/03/26 05:32:22;;;;;;;14.07;12.60;;;;;;;4.99;45.02;95898.03;5140038;27;20215;-68
2022/03/26 05:34:50;;;;;;;15.38;13.73;;;;;;;5.09;45.06;95897.09;5158260;27;20198;-68
2022/03/26 05:37:17;;;;;;;14.07;12.38;;;;;;;5.26;45.63;95898.13;5158197;27;20521;-71
2022/03/26 05:39:44;;;;;;;15.57;11.90;;;;;;;5.37;45.09;95901.50;5139956;27;20190;-70
2022/03/26 05:42:12;;;;;;;14.90;13.20;;;;;;;5.49;45.87;95901.88;5140209;27;20190;-71
2022/03/26 05:44:38;;;;;;;14.10;12.73;;;;;;;5.54;45.13;95900.97;5157922;27;20266;-71
2022/03/26 05:47:08;;;;;;;14.45;12.98;;;;;;;5.53;45.65;95905.63;5139623;27;20292;-70
2022/03/26 05:49:35;;;;;;;15.02;12.95;;;;;;;5.57;45.15;95918.72;5140304;27;20195;-71
2022/03/26 05:52:01;;;;;;;15.00;13.25;;;;;;;5.56;45.81;95912.44;5139720;27;20211;-73
2022/03/26 05:54:28;;;;;;;14.75;13.25;;;;;;;5.62;45.73;95916.69;5139442;27;20640;-70
2022/03/26 05:56:55;;;;;;;14.95;13.40;;;;;;;5.65;44.96;95912.53;5157849;27;20193;-70
2022/03/26 05:59:23;;;;;;;13.90;12.52;;;;;;;5.67;44.82;95913.06;5158042;27;20187;-69
2022/03/26 06:01:50;;;;;;;17.35;12.70;;;;;;;5.71;45.41;95920.38;5157256;27;20316;-70
2022/03/26 06:04:18;;;;;;;16.27;13.38;;;;;;;5.77;45.09;95908.22;5139515;27;20194;-71
2022/03/26 06:06:46;;;;;;;16.15;12.48;;;;;;;5.85;45.01;95914.13;5157388;27;20189;-69
2022/03/26 06:09:13;;;;;;;15.52;12.85;;;;;;;5.88;44.70;95918.97;5157956;27;20259;-70
2022/03/26 06:11:40;;;;;;;13.75;12.30;;;;;;;5.93;44.53;95916.97;5139299;27;20217;-72
2022/03/26 06:14:07;;;;;;;14.63;13.10;;;;;;;6.03;44.70;95918.72;5157568;27;20197;-70
2022/03/26 06:16:34;;;;;;;15.85;13.35;;;;;;;6.18;43.73;95915.69;5139463;27;20610;-70
2022/03/26 06:19:01;;;;;;;14.98;13.40;;;;;;;6.24;43.98;95924.59;5157550;27;20183;-71
2022/03/26 06:21:30;;;;;;;15.82;14.27;;;;;;;6.30;44.14;95917.09;5139174;27;20194;-69
2022/03/26 06:23:58;;;;;;;17.60;15.00;;;;;;;6.41;44.04;95924.81;5157335;27;20194;-68
2022/03/26 06:26:25;;;;;;;16.55;14.82;;;;;;;6.56;43.94;95920.13;5157003;27;20194;-69
2022/03/26 06:28:52;;;;;;;15.27;13.82;;;;;;;6.60;43.12;95921.94;5156895;27;20179;-69
2022/03/26 06:31:19;;;;;;;19.48;15.88;;;;;;;6.66;43.50;95917.16;5138958;27;20274;-71
2022/03/26 06:33:46;;;;;;;23.25;19.60;;;;;;;6.78;43.16;95924.84;5157074;27;20198;-69
2022/03/26 06:36:13;;;;;;;21.58;19.48;;;;;;;6.82;42.69;95928.59;5156752;27;20627;-71
2022/03/26 06:38:44;;;;;;;22.55;20.23;;;;;;;6.86;43.06;95926.88;5157017;27;20178;-67
2022/03/26 06:41:11;;;;;;;23.10;20.65;;;;;;;6.95;43.06;95931.31;5138745;27;20279;-67
2022/03/26 06:43:37;;;;;;;24.52;22.02;;;;;;;7.02;43.16;95930.91;5157194;27;20182;-67
2022/03/26 06:46:04;;;;;;;31.90;28.65;;;;;;;7.15;43.27;95934.72;5139228;27;20585;-67
2022/03/26 06:48:31;;;;;;;32.25;28.98;;;;;;;7.21;42.74;95931.53;5157014;27;20193;-67
2022/03/26 06:51:00;;;;;;;30.17;26.98;;;;;;;7.27;42.06;95925.94;5138695;27;20201;-67
2022/03/26 06:53:26;;;;;;;27.98;25.13;;;;;;;7.31;42.12;95936.00;5157076;27;20192;-67
2022/03/26 06:55:55;;;;;;;26.27;23.58;;;;;;;7.36;41.75;95935.84;5156734;27;20618;-67
2022/03/26 06:58:21;;;;;;;25.73;23.20;;;;;;;7.42;42.14;95939.31;5156991;27;20174;-67
2022/03/26 07:00:48;;;;;;;24.80;20.92;;;;;;;7.42;41.49;95942.84;5156921;27;20193;-67
2022/03/26 07:03:15;;;;;;;23.98;21.38;;;;;;;7.46;42.10;95949.34;5156880;27;20205;-67
2022/03/26 07:05:42;;;;;;;24.33;20.10;;;;;;;7.60;41.78;95940.25;5139136;27;20533;-67
2022/03/26 07:08:10;;;;;;;21.92;17.77;;;;;;;7.74;41.47;95943.72;5135110;28;20230;-67
2022/03/26 07:10:37;;;;;;;19.90;17.38;;;;;;;7.85;41.48;95945.09;5136082;28;20236;-67
2022/03/26 07:13:23;;;;;;;19.58;17.75;;;;;;;7.94;40.78;95947.88;5135271;27;20222;-67
2022/03/26 07:15:50;;;;;;;19.15;17.17;;;;;;;7.93;40.90;95951.75;5139331;27;20205;-67
2022/03/26 07:18:17;;;;;;;18.63;16.50;;;;;;;8.01;40.82;95953.72;5139282;27;20198;-67
2022/03/26 07:20:44;;;;;;;17.50;15.70;;;;;;;8.12;40.86;95954.28;5140128;27;20187;-67
2022/03/26 07:23:11;;;;;;;16.50;14.95;;;;;;;8.18;40.30;95953.00;5122322;27;20198;-67
2022/03/26 07:25:37;;;;;;;18.25;16.08;;;;;;;8.25;40.33;95955.31;5140045;27;20226;-67
2022/03/26 07:28:05;;;;;;;18.80;16.40;;;;;;;8.35;40.49;95953.09;5122089;27;20201;-67
2022/03/26 07:30:33;;;;;;;19.38;17.13;;;;;;;8.47;40.10;95960.78;5122013;27;20195;-67
2022/03/26 07:33:00;;;;;;;20.45;18.25;;;;;;;8.56;40.45;95952.53;5139816;27;20207;-67
2022/03/26 07:35:27;;;;;;;21.35;16.77;;;;;;;8.65;39.92;95958.91;5121922;27;20195;-67
2022/03/26 07:37:54;;;;;;;17.15;15.45;;;;;;;8.63;40.15;95961.94;5139575;27;20638;-67
2022/03/26 07:40:21;;;;;;;17.75;15.75;;;;;;;8.68;39.76;95961.00;5140001;27;20198;-67
2022/03/26 07:42:48;;;;;;;18.55;15.07;;;;;;;8.82;40.26;95958.94;5121767;27;20260;-67
2022/03/26 07:45:15;;;;;;;17.75;15.85;;;;;;;8.96;39.63;95960.75;5122162;27;20206;-67
2022/03/26 07:47:43;;;;;;;20.02;16.25;;;;;;;9.09;39.48;95959.81;5139701;27;20632;-67
2022/03/26 07:50:10;;;;;;;22.15;16.08;;;;;;;9.19;39.54;95951.25;5140051;27;20201;-67
2022/03/26 07:52:38;;;;;;;18.58;14.43;;;;;;;9.25;38.63;95960.94;5121448;27;20215;-67
2022/03/26 07:55:06;;;;;;;17.55;15.63;;;;;;;9.33;38.00;95953.81;5121646;27;20511;-67
2022/03/26 07:57:33;;;;;;;16.35;14.80;;;;;;;9.41;39.36;95955.78;5121410;27;20195;-67
2022/03/26 08:00:00;;;;;;;18.42;15.38;;;;;;;9.52;38.45;95957.06;5139838;27;20198;-67
2022/03/26 08:02:27;;;;;;;18.00;14.73;;;;;;;9.57;38.44;95953.34;5121281;27;20199;-67
2022/03/26 08:04:55;;;;;;;16.27;14.38;;;;;;;9.67;37.95;95949.44;5121160;27;20202;-67
2022/03/26 08:07:22;;;;;;;19.95;15.43;;;;;;;9.71;38.20;95950.41;5120919;27;20235;-67
2022/03/26 08:09:50;;;;;;;19.08;15.85;;;;;;;9.74;38.52;95949.78;5139281;27;20209;-67
2022/03/26 08:12:17;;;;;;;17.63;15.75;;;;;;;9.78;38.06;95953.50;5121040;27;20648;-67
2022/03/26 08:14:44;;;;;;;17.30;15.40;;;;;;;9.85;38.35;95949.09;5120993;27;20202;-67
2022/03/26 08:17:11;;;;;;;21.40;16.60;;;;;;;9.95;37.31;95945.19;5138794;27;20179;-67
2022/03/26 08:19:38;;;;;;;17.77;15.85;;;;;;;10.05;36.83;95946.78;5120847;27;20191;-67
2022/03/26 08:22:07;;;;;;;18.13;16.15;;;;;;;10.19;37.03;95947.38;5120684;27;20201;-67
2022/03/26 08:24:33;;;;;;;18.65;16.80;;;;;;;10.36;37.36;95949.31;5138960;27;20193;-67
2022/03/26 08:27:00;;;;;;;19.83;17.75;;;;;;;10.44;38.43;95942.94;5120018;27;20209;-67
2022/03/26 08:29:28;;;;;;;20.65;18.45;;;;;;;10.56;37.49;95950.53;5138569;27;20621;-67
2022/03/26 08:31:55;;;;;;;20.55;18.35;;;;;;;10.64;37.31;95937.81;5138883;27;20217;-67
2022/03/26 08:34:22;;;;;;;22.13;19.88;;;;;;;10.72;36.58;95937.00;5120682;27;20199;-67
2022/03/26 08:36:49;;;;;;;22.33;18.92;;;;;;;10.81;36.86;95934.97;5120806;27;20203;-67
2022/03/26 08:39:17;;;;;;;23.55;18.75;;;;;;;10.89;36.74;95930.56;5121162;27;20195;-67
2022/03/26 08:41:45;;;;;;;20.67;18.52;;;;;;;11.03;37.38;95933.88;5120496;27;20199;-67
2022/03/26 08:44:12;;;;;;;18.77;16.77;;;;;;;11.07;35.20;95921.84;5120734;27;20248;-67
2022/03/26 08:46:39;;;;;;;19.02;17.00;;;;;;;11.04;35.14;95922.53;5138432;27;20198;-67
2022/03/26 08:49:06;;;;;;;19.05;16.40;;;;;;;11.16;35.31;95918.22;5121041;27;20206;-67
2022/03/26 08:51:33;;;;;;;18.65;16.33;;;;;;;11.33;36.70;95918.09;5120137;27;20206;-67
2022/03/26 08:54:00;;;;;;;19.25;17.20;;;;;;;11.40;34.89;95915.59;5120336;27;20194;-67
2022/03/26 08:56:28;;;;;;;19.40;16.98;;;;;;;11.48;34.45;95911.16;5138367;27;20183;-67
2022/03/26 08:58:55;;;;;;;19.00;17.00;;;;;;;11.60;34.38;95907.63;5120135;27;20195;-67
2022/03/26 09:01:22;;;;;;;19.08;16.00;;;;;;;11.67;34.05;95908.69;5138220;27;20227;-67
2022/03/26 09:03:50;;;;;;;19.73;16.33;;;;;;;11.86;34.43;95901.88;5137913;27;20599;-67
2022/03/26 09:06:18;;;;;;;22.73;16.30;;;;;;;12.00;33.67;95908.69;5138129;27;20191;-67
2022/03/26 09:08:44;;;;;;;18.10;16.20;;;;;;;12.13;34.16;95901.25;5119778;27;20692;-67
2022/03/26 09:11:12;;;;;;;17.95;15.48;;;;;;;12.26;34.59;95902.06;5120054;27;20194;-67
2022/03/26 09:13:41;;;;;;;18.15;15.73;;;;;;;12.37;33.41;95903.25;5120198;27;20598;-67
2022/03/26 09:16:08;;;;;;;18.65;15.90;;;;;;;12.46;33.23;95898.41;5137647;27;20591;-67
2022/03/26 09:18:35;;;;;;;19.05;15.13;;;;;;;12.53;33.16;95898.66;5111206;27;20685;-67
2022/03/26 09:21:01;;;;;;;17.90;16.10;;;;;;;12.56;33.42;95901.88;5137542;27;20187;-67
2022/03/26 09:23:28;;;;;;;18.60;16.17;;;;;;;12.61;32.64;95904.41;5120161;27;20195;-67
2022/03/26 09:25:55;;;;;;;30.15;16.73;;;;;;;12.63;33.32;95896.56;5119880;27;20206;-67
2022/03/26 09:28:22;;;;;;;21.92;14.35;;;;;;;12.78;33.28;95884.78;5137785;27;20187;-67
2022/03/26 09:30:51;;;;;;;23.45;13.90;;;;;;;13.00;33.15;95884.31;5119585;27;20183;-67
2022/03/26 09:33:17;;;;;;;18.83;13.73;;;;;;;13.20;32.44;95882.53;5120101;27;20259;-67
2022/03/26 09:35:44;;;;;;;13.00;10.18;;;;;;;13.35;33.19;95871.91;5119165;27;20199;-67
2022/03/26 09:38:11;;;;;;;16.00;7.47;;;;;;;13.45;33.62;95865.88;5137597;27;20183;-67
2022/03/26 09:40:39;;;;;;;10.20;8.80;;;;;;;13.60;32.39;95869.88;5137581;27;20191;-67
2022/03/26 09:43:06;;;;;;;10.13;7.78;;;;;;;13.78;31.01;95856.50;5119040;27;20530;-67
2022/03/26 09:45:33;;;;;;;11.63;8.73;;;;;;;13.80;30.54;95860.53;5128755;27;20179;-67
2022/03/26 09:48:01;;;;;;;9.57;8.20;;;;;;;13.95;31.10;95859.75;5136996;27;20599;-67
2022/03/26 09:50:28;;;;;;;11.98;8.93;;;;;;;14.04;30.50;95856.81;5136216;27;20209;-67
2022/03/26 09:52:57;;;;;;;10.50;8.43;;;;;;;14.13;29.54;95853.88;5136158;27;20219;-67
2022/03/26 09:55:24;;;;;;;19.98;8.70;;;;;;;14.23;31.05;95850.53;5136219;27;20226;-67
2022/03/26 09:57:52;;;;;;;10.15;8.35;;;;;;;14.41;30.08;95846.25;5136195;27;20198;-67
2022/03/26 10:00:19;;;;;;;11.32;8.80;;;;;;;14.46;30.69;95847.97;5136788;27;20530;-67
2022/03/26 10:02:46;;;;;;;11.48;8.40;;;;;;;14.64;31.69;95845.66;5136731;27;20190;-67
2022/03/26 10:05:18;;;;;;;15.65;8.38;;;;;;;14.82;29.42;95844.09;5136745;27;20189;-67
2022/03/26 10:07:47;;;;;;;12.98;9.13;;;;;;;14.88;29.39;95839.84;5135733;27;20237;-67
2022/03/26 10:10:22;;;;;;;12.77;8.75;;;;;;;14.89;29.67;95840.69;5137014;27;20179;-67
2022/03/26 10:12:51;;;;;;;13.32;8.70;;;;;;;14.99;28.97;95836.53;5135842;27;20310;-67
2022/03/26 10:15:18;;;;;;;13.70;8.90;;;;;;;15.09;29.24;95839.53;5136452;27;20186;-67
2022/03/26 10:17:46;;;;;;;12.55;8.48;;;;;;;15.21;29.24;95824.69;5136687;27;20179;-68
2022/03/26 10:20:15;;;;;;;10.85;8.35;;;;;;;15.31;30.67;95835.25;5118657;27;20241;-68
2022/03/26 10:22:43;;;;;;;9.88;8.13;;;;;;;15.28;28.02;95822.09;5136653;27;20301;-67
2022/03/26 10:25:12;;;;;;;9.77;7.38;;;;;;;15.40;29.13;95815.59;5136307;27;20179;-67
2022/03/26 10:27:42;;;;;;;8.85;7.75;;;;;;;15.57;28.72;95811.53;5136295;27;20599;-67
2022/03/26 10:30:10;;;;;;;8.65;7.85;;;;;;;15.70;29.63;95810.25;5136317;27;20437;-67
2022/03/26 10:32:40;;;;;;;9.70;8.30;;;;;;;15.78;30.24;95813.97;5135346;27;20426;-67
2022/03/26 10:35:12;;;;;;;9.20;7.20;;;;;;;15.77;28.98;95813.19;5136445;27;20214;-67
2022/03/26 10:37:44;;;;;;;8.88;6.68;;;;;;;15.93;29.50;95809.47;5118706;27;20195;-67
2022/03/26 10:40:20;;;;;;;8.25;7.45;;;;;;;16.07;29.87;95809.75;5118291;28;20206;-67
2022/03/26 10:42:53;;;;;;;9.88;7.40;;;;;;;16.27;27.51;95810.50;5118293;27;20194;-67
2022/03/26 10:45:21;;;;;;;8.73;7.82;;;;;;;16.41;26.07;95804.34;5136286;27;20271;-67
2022/03/26 10:47:52;;;;;;;8.70;7.97;;;;;;;16.50;25.99;95800.13;5136266;27;20194;-67
2022/03/26 10:50:19;;;;;;;11.48;7.57;;;;;;;16.70;27.27;95800.03;5135101;27;20198;-67
2022/03/26 10:52:48;;;;;;;7.53;6.78;;;;;;;16.86;27.06;95799.91;5136334;27;20203;-67
2022/03/26 10:55:15;;;;;;;9.93;6.45;;;;;;;16.80;26.86;95791.06;5136742;28;20232;-67
2022/03/26 10:57:45;;;;;;;9.88;7.03;;;;;;;16.96;27.67;95800.06;5118600;28;20190;-67
2022/03/26 11:00:13;;;;;;;6.90;6.20;;;;;;;17.09;26.65;95795.06;5118340;28;20552;-67
2022/03/26 11:02:41;;;;;;;7.20;6.00;;;;;;;17.01;26.03;95788.56;5117813;28;20640;-67
2022/03/26 11:05:09;;;;;;;8.98;7.05;;;;;;;17.07;25.94;95780.72;5118093;28;20566;-67
2022/03/26 11:07:37;;;;;;;7.78;6.22;;;;;;;17.18;25.95;95784.44;5135050;28;20219;-67
2022/03/26 11:10:07;;;;;;;8.38;5.95;;;;;;;17.37;26.81;95771.53;5118320;28;20205;-67
2022/03/26 11:12:35;;;;;;;8.23;6.47;;;;;;;17.53;26.19;95761.75;5136030;28;20197;-67
2022/03/26 11:15:03;;;;;;;9.52;6.30;;;;;;;17.66;26.41;95759.50;5118011;28;20201;-67
2022/03/26 11:17:39;;;;;;;7.53;6.85;;;;;;;17.82;25.46;95752.91;5117736;28;20199;-67
2022/03/26 11:20:21;;;;;;;10.40;6.85;;;;;;;17.71;24.59;95744.41;5136081;28;20212;-67
2022/03/26 11:23:06;;;;;;;9.52;6.30;;;;;;;17.62;25.44;95749.50;5135918;28;20175;-67
2022/03/26 11:26:03;;;;;;;8.90;5.90;;;;;;;17.50;24.95;95745.78;5133646;28;20199;-67